createdAt,value
2023-04-23T00:00:21.071Z,4.10
2023-04-23T00:02:53.897Z,3.57
2023-04-23T00:05:23.746Z,2.03
2023-04-23T00:07:52.401Z,1.83
2023-04-23T00:10:21.406Z,1.97
2023-04-23T00:12:50.319Z,1.50
2023-04-23T00:15:22.059Z,2.20
2023-04-23T00:17:50.509Z,1.70
2023-04-23T00:20:19.181Z,1.90
2023-04-23T00:22:47.562Z,2.00
2023-04-23T00:25:15.998Z,20.50
2023-04-23T00:27:44.541Z,9.17
2023-04-23T00:30:13.376Z,4.43
2023-04-23T00:32:43.189Z,2.17
2023-04-23T00:35:11.866Z,1.97
2023-04-23T00:37:40.709Z,1.80
2023-04-23T00:40:10.628Z,1.73
2023-04-23T00:42:40.006Z,1.47
2023-04-23T00:45:10.446Z,1.80
2023-04-23T00:47:50.892Z,1.70
2023-04-23T00:50:20.779Z,2.00
2023-04-23T00:52:49.237Z,2.03
2023-04-23T00:55:20.900Z,1.50
2023-04-23T00:57:49.767Z,1.40
2023-04-23T01:00:20.343Z,1.90
2023-04-23T01:02:53.146Z,2.00
2023-04-23T01:05:24.606Z,1.70
2023-04-23T01:07:53.161Z,1.50
2023-04-23T01:10:22.445Z,1.70
2023-04-23T01:13:01.464Z,1.90
2023-04-23T01:15:29.857Z,1.57
2023-04-23T01:17:59.629Z,1.93
2023-04-23T01:20:28.447Z,1.87
2023-04-23T01:22:58.219Z,1.70
2023-04-23T01:25:26.953Z,2.00
2023-04-23T01:27:55.713Z,1.83
2023-04-23T01:30:25.020Z,1.70
2023-04-23T01:32:54.128Z,1.90
2023-04-23T01:35:22.723Z,1.83
2023-04-23T01:37:52.882Z,1.77
2023-04-23T01:40:22.798Z,1.80
2023-04-23T01:42:52.011Z,1.80
2023-04-23T01:45:20.671Z,2.00
2023-04-23T01:47:49.424Z,2.00
2023-04-23T01:50:17.899Z,2.33
2023-04-23T01:52:46.453Z,2.87
2023-04-23T01:55:15.274Z,1.60
2023-04-23T01:57:45.000Z,1.70
2023-04-23T02:00:15.128Z,1.67
2023-04-23T02:02:45.036Z,1.70
2023-04-23T02:05:16.592Z,1.70
2023-04-23T02:07:45.732Z,1.70
2023-04-23T02:10:14.576Z,1.47
2023-04-23T02:12:45.103Z,1.70
2023-04-23T02:15:26.019Z,1.70
2023-04-23T02:17:55.617Z,1.70
2023-04-23T02:20:23.991Z,1.87
2023-04-23T02:22:53.388Z,2.00
2023-04-23T02:25:22.318Z,1.90
2023-04-23T02:27:52.236Z,1.80
2023-04-23T02:30:20.823Z,2.00
2023-04-23T02:32:50.166Z,2.10
2023-04-23T02:35:18.636Z,1.90
2023-04-23T02:37:46.990Z,2.20
2023-04-23T02:40:15.354Z,1.90
2023-04-23T02:42:44.054Z,1.90
2023-04-23T02:45:13.994Z,2.30
2023-04-23T02:47:42.672Z,1.77
2023-04-23T02:50:12.424Z,1.83
2023-04-23T02:52:41.287Z,1.90
2023-04-23T02:55:12.034Z,2.20
2023-04-23T02:57:40.999Z,1.73
2023-04-23T03:00:14.592Z,2.10
2023-04-23T03:02:44.484Z,2.33
2023-04-23T03:05:17.430Z,1.90
2023-04-23T03:07:45.818Z,2.33
2023-04-23T03:10:14.164Z,1.90
2023-04-23T03:12:42.563Z,2.10
2023-04-23T03:15:12.716Z,2.10
2023-04-23T03:17:41.349Z,1.70
2023-04-23T03:20:16.672Z,1.80
2023-04-23T03:22:48.141Z,2.00
2023-04-23T03:25:16.594Z,1.60
2023-04-23T03:27:45.127Z,1.90
2023-04-23T03:30:13.722Z,1.87
2023-04-23T03:32:42.205Z,2.00
2023-04-23T03:35:13.364Z,2.00
2023-04-23T03:37:41.721Z,1.87
2023-04-23T03:40:12.083Z,1.80
2023-04-23T03:42:40.622Z,1.90
2023-04-23T03:45:13.426Z,1.73
2023-04-23T03:47:41.876Z,1.77
2023-04-23T03:50:14.320Z,1.93
2023-04-23T03:52:52.654Z,2.17
2023-04-23T03:55:21.209Z,1.67
2023-04-23T03:57:49.574Z,1.80
2023-04-23T04:00:18.747Z,1.87
2023-04-23T04:02:47.200Z,2.03
2023-04-23T04:05:17.238Z,1.90
2023-04-23T04:07:45.917Z,2.10
2023-04-23T04:10:14.326Z,1.83
2023-04-23T04:12:44.953Z,1.90
2023-04-23T04:15:14.607Z,2.07
2023-04-23T04:17:53.011Z,1.90
2023-04-23T04:20:23.050Z,1.70
2023-04-23T04:22:51.474Z,2.10
2023-04-23T04:25:19.961Z,1.80
2023-04-23T04:27:48.344Z,2.10
2023-04-23T04:30:16.987Z,1.90
2023-04-23T04:32:46.257Z,1.73
2023-04-23T04:35:14.861Z,2.03
2023-04-23T04:37:44.986Z,1.70
2023-04-23T04:40:14.599Z,1.60
2023-04-23T04:42:43.016Z,1.73
2023-04-23T04:45:12.411Z,1.80
2023-04-23T04:47:41.387Z,1.90
2023-04-23T04:50:13.308Z,1.93
2023-04-23T04:52:44.021Z,1.90
2023-04-23T04:55:12.475Z,1.90
2023-04-23T04:57:47.032Z,1.63
2023-04-23T05:00:23.916Z,2.00
2023-04-23T05:02:53.161Z,1.90
2023-04-23T05:05:23.363Z,2.20
2023-04-23T05:07:54.422Z,1.83
2023-04-23T05:10:25.094Z,2.20
2023-04-23T05:12:53.503Z,1.90
2023-04-23T05:15:21.892Z,2.00
2023-04-23T05:17:53.607Z,1.87
2023-04-23T05:20:22.646Z,2.30
2023-04-23T05:22:51.026Z,2.07
2023-04-23T05:25:20.770Z,1.67
2023-04-23T05:27:49.311Z,1.93
2023-04-23T05:30:18.066Z,1.97
2023-04-23T05:32:46.643Z,1.90
2023-04-23T05:35:15.019Z,1.90
2023-04-23T05:37:43.425Z,1.90
2023-04-23T05:40:13.572Z,2.37
2023-04-23T05:42:43.445Z,2.30
2023-04-23T05:45:12.896Z,2.10
2023-04-23T05:47:41.294Z,2.40
2023-04-23T05:50:13.030Z,2.23
2023-04-23T05:52:41.461Z,3.00
2023-04-23T05:55:11.013Z,2.60
2023-04-23T05:57:44.234Z,2.40
2023-04-23T06:00:13.340Z,2.53
2023-04-23T06:02:48.004Z,2.47
2023-04-23T06:05:16.796Z,2.83
2023-04-23T06:07:45.300Z,2.60
2023-04-23T06:10:13.973Z,2.53
2023-04-23T06:12:42.459Z,3.20
2023-04-23T06:15:12.750Z,3.47
2023-04-23T06:17:41.198Z,2.97
2023-04-23T06:20:11.905Z,2.90
2023-04-23T06:22:40.660Z,2.50
2023-04-23T06:25:09.982Z,2.93
2023-04-23T06:27:45.783Z,2.73
2023-04-23T06:30:15.695Z,3.10
2023-04-23T06:32:44.119Z,4.03
2023-04-23T06:35:13.775Z,2.50
2023-04-23T06:37:42.068Z,2.97
2023-04-23T06:40:12.541Z,2.40
2023-04-23T06:42:40.895Z,2.73
2023-04-23T06:45:10.049Z,2.43
2023-04-23T06:47:39.797Z,2.77
2023-04-23T06:50:09.568Z,3.20
2023-04-23T06:52:38.100Z,2.43
2023-04-23T06:55:07.887Z,2.23
2023-04-23T06:57:36.504Z,2.43
2023-04-23T07:00:08.138Z,2.20
2023-04-23T07:02:36.585Z,2.47
2023-04-23T07:05:06.948Z,2.40
2023-04-23T07:07:37.402Z,2.50
2023-04-23T07:10:07.060Z,2.50
2023-04-23T07:12:35.470Z,2.77
2023-04-23T07:15:04.077Z,2.60
2023-04-23T07:17:32.864Z,2.40
2023-04-23T07:20:05.043Z,2.50
2023-04-23T07:22:34.848Z,2.03
2023-04-23T07:25:04.337Z,2.47
2023-04-23T07:27:32.688Z,2.50
2023-04-23T07:30:01.918Z,4.83
2023-04-23T07:32:30.442Z,3.57
2023-04-23T07:34:58.798Z,3.23
2023-04-23T07:37:27.140Z,2.50
2023-04-23T07:39:56.872Z,3.00
2023-04-23T07:42:25.284Z,2.47
2023-04-23T07:44:53.644Z,2.40
2023-04-23T07:47:21.999Z,3.27
2023-04-23T07:49:50.566Z,3.50
2023-04-23T07:52:19.041Z,2.80
2023-04-23T07:54:47.484Z,2.80
2023-04-23T07:57:17.249Z,2.50
2023-04-23T07:59:45.649Z,2.27
2023-04-23T08:02:15.390Z,2.60
2023-04-23T08:04:44.035Z,2.50
2023-04-23T08:07:13.128Z,2.37
2023-04-23T08:09:42.388Z,2.50
2023-04-23T08:12:11.156Z,2.97
2023-04-23T08:14:40.864Z,2.60
2023-04-23T08:17:09.253Z,2.70
2023-04-23T08:19:37.645Z,3.00
2023-04-23T08:22:06.047Z,3.07
2023-04-23T08:24:34.539Z,4.67
2023-04-23T08:27:02.992Z,3.97
2023-04-23T08:29:31.417Z,2.80
2023-04-23T08:32:01.380Z,3.40
2023-04-23T08:34:29.944Z,2.00
2023-04-23T08:36:58.354Z,2.00
2023-04-23T08:39:30.631Z,1.80
2023-04-23T08:42:06.084Z,2.50
2023-04-23T08:44:35.357Z,2.30
2023-04-23T08:47:06.654Z,2.07
2023-04-23T08:49:37.117Z,1.93
2023-04-23T08:52:18.771Z,2.57
2023-04-23T08:54:50.817Z,2.47
2023-04-23T08:57:19.546Z,2.10
2023-04-23T08:59:48.729Z,1.70
2023-04-23T09:02:19.583Z,2.30
2023-04-23T09:04:50.854Z,3.27
2023-04-23T09:07:20.599Z,1.90
2023-04-23T09:09:49.033Z,2.20
2023-04-23T09:12:17.595Z,4.60
2023-04-23T09:14:46.121Z,3.33
2023-04-23T09:17:14.639Z,5.30
2023-04-23T09:19:44.646Z,6.00
2023-04-23T09:22:13.813Z,5.33
2023-04-23T09:24:43.637Z,7.30
2023-04-23T09:27:20.829Z,5.20
2023-04-23T09:29:53.125Z,4.10
2023-04-23T09:32:32.722Z,3.63
2023-04-23T09:35:03.782Z,4.67
2023-04-23T09:37:32.413Z,3.90
2023-04-23T09:40:01.655Z,2.33
2023-04-23T09:42:30.098Z,2.37
2023-04-23T09:44:59.686Z,2.80
2023-04-23T09:47:28.164Z,3.00
2023-04-23T09:49:56.983Z,2.10
2023-04-23T09:52:27.015Z,5.90
2023-04-23T09:54:59.336Z,3.73
2023-04-23T09:57:27.801Z,2.17
2023-04-23T10:00:07.406Z,2.60
2023-04-23T10:02:47.975Z,2.93
2023-04-23T10:05:23.499Z,2.13
2023-04-23T10:07:58.574Z,3.47
2023-04-23T10:10:27.373Z,3.03
2023-04-23T10:12:57.626Z,2.63
2023-04-23T10:15:27.859Z,3.57
2023-04-23T10:17:57.077Z,2.97
2023-04-23T10:20:26.900Z,3.40
2023-04-23T10:22:58.049Z,2.43
2023-04-23T10:25:29.023Z,2.93
2023-04-23T10:27:59.565Z,8.77
2023-04-23T10:30:28.926Z,2.90
2023-04-23T10:33:01.302Z,2.73
2023-04-23T10:35:30.285Z,3.67
2023-04-23T10:37:58.922Z,3.47
2023-04-23T10:40:33.515Z,2.50
2023-04-23T10:43:05.859Z,3.00
2023-04-23T10:45:34.308Z,4.53
2023-04-23T10:48:04.453Z,1.93
2023-04-23T10:50:38.034Z,2.50
2023-04-23T10:53:21.116Z,2.33
2023-04-23T10:55:51.020Z,2.73
2023-04-23T10:58:20.927Z,2.80
2023-04-23T11:00:50.995Z,2.77
2023-04-23T11:03:30.888Z,2.87
2023-04-23T11:06:02.031Z,2.80
2023-04-23T11:08:32.370Z,5.77
2023-04-23T11:11:03.435Z,11.53
2023-04-23T11:13:31.901Z,3.27
2023-04-23T11:16:22.133Z,3.07
2023-04-23T11:18:58.618Z,3.07
2023-04-23T11:21:58.909Z,2.87
2023-04-23T11:24:29.767Z,2.73
2023-04-23T11:27:01.298Z,3.00
2023-04-23T11:29:30.399Z,2.87
2023-04-23T11:32:02.956Z,3.23
2023-04-23T11:34:33.300Z,3.20
2023-04-23T11:37:03.419Z,5.50
2023-04-23T11:39:31.867Z,4.57
2023-04-23T11:42:03.268Z,3.83
2023-04-23T11:44:32.276Z,2.80
2023-04-23T11:47:02.433Z,3.60
2023-04-23T11:49:31.448Z,3.10
2023-04-23T11:52:01.816Z,3.10
2023-04-23T11:54:30.584Z,2.70
2023-04-23T11:56:59.918Z,3.20
2023-04-23T11:59:29.908Z,3.33
2023-04-23T12:01:59.344Z,2.30
2023-04-23T12:04:29.178Z,2.30
2023-04-23T12:06:59.218Z,2.50
2023-04-23T12:09:29.620Z,2.43
2023-04-23T12:11:59.340Z,2.20
2023-04-23T12:14:30.509Z,2.40
2023-04-23T12:17:09.955Z,2.80
2023-04-23T12:19:38.389Z,2.77
2023-04-23T12:22:08.597Z,3.10
2023-04-23T12:24:48.334Z,5.07
2023-04-23T12:27:20.395Z,3.50
2023-04-23T12:30:04.117Z,2.90
2023-04-23T12:32:34.633Z,3.10
2023-04-23T12:35:06.110Z,2.63
2023-04-23T12:37:37.725Z,2.60
2023-04-23T12:40:08.111Z,3.17
2023-04-23T12:42:37.529Z,2.80
2023-04-23T12:45:12.042Z,2.90
2023-04-23T12:47:40.444Z,2.77
2023-04-23T12:50:09.724Z,2.63
2023-04-23T12:52:38.299Z,2.90
2023-04-23T12:55:07.669Z,3.03
2023-04-23T12:57:36.067Z,3.07
2023-04-23T13:00:05.019Z,2.90
2023-04-23T13:02:35.869Z,2.57
2023-04-23T13:05:04.481Z,2.60
2023-04-23T13:07:32.931Z,3.30
2023-04-23T13:10:01.431Z,2.80
2023-04-23T13:12:29.846Z,3.00
2023-04-23T13:14:59.264Z,2.83
2023-04-23T13:17:27.884Z,2.70
2023-04-23T13:20:01.662Z,2.90
2023-04-23T13:22:30.145Z,3.10
2023-04-23T13:24:59.420Z,2.63
2023-04-23T13:27:29.465Z,3.30
2023-04-23T13:29:58.686Z,2.87
2023-04-23T13:32:32.073Z,3.00
2023-04-23T13:35:04.854Z,3.10
2023-04-23T13:37:33.799Z,2.50
2023-04-23T13:40:02.628Z,2.80
2023-04-23T13:42:31.665Z,2.90
2023-04-23T13:45:00.125Z,3.00
2023-04-23T13:47:31.622Z,3.43
2023-04-23T13:50:03.169Z,3.43
2023-04-23T13:52:41.560Z,3.27
2023-04-23T13:55:10.599Z,3.63
2023-04-23T13:57:39.250Z,3.43
2023-04-23T14:00:12.748Z,3.73
2023-04-23T14:02:41.666Z,3.73
2023-04-23T14:05:12.158Z,3.47
2023-04-23T14:07:40.518Z,4.10
2023-04-23T14:10:09.647Z,3.27
2023-04-23T14:12:38.917Z,3.57
2023-04-23T14:15:08.347Z,2.90
2023-04-23T14:17:37.266Z,3.50
2023-04-23T14:20:19.771Z,3.43
2023-04-23T14:22:51.686Z,2.70
2023-04-23T14:25:26.710Z,3.90
2023-04-23T14:27:57.602Z,3.33
2023-04-23T14:30:27.969Z,2.53
2023-04-23T14:32:57.269Z,2.90
2023-04-23T14:35:35.980Z,3.27
2023-04-23T14:38:11.623Z,4.00
2023-04-23T14:40:40.425Z,3.20
2023-04-23T14:43:16.287Z,3.33
2023-04-23T14:45:45.292Z,3.50
2023-04-23T14:48:13.951Z,3.37
2023-04-23T14:50:43.946Z,3.80
2023-04-23T14:53:12.388Z,3.50
2023-04-23T14:55:43.223Z,3.73
2023-04-23T14:58:11.635Z,3.40
2023-04-23T15:00:40.235Z,2.73
2023-04-23T15:03:11.075Z,6.20
2023-04-23T15:05:40.062Z,4.93
2023-04-23T15:08:09.921Z,5.67
2023-04-23T15:10:38.327Z,4.83
2023-04-23T15:13:29.152Z,4.30
2023-04-23T15:16:00.155Z,4.47
2023-04-23T15:18:28.664Z,4.03
2023-04-23T15:20:57.195Z,5.47
2023-04-23T15:23:27.034Z,4.20
2023-04-23T15:25:55.507Z,4.33
2023-04-23T15:28:26.293Z,3.93
2023-04-23T15:30:59.392Z,3.77
2023-04-23T15:33:28.275Z,5.70
2023-04-23T15:35:58.173Z,4.63
2023-04-23T15:38:29.747Z,3.93
2023-04-23T15:40:58.248Z,4.17
2023-04-23T15:43:26.666Z,4.90
2023-04-23T15:45:58.603Z,3.50
2023-04-23T15:48:27.200Z,4.00
2023-04-23T15:50:55.741Z,4.13
2023-04-23T15:53:24.223Z,4.20
2023-04-23T15:55:54.028Z,3.73
2023-04-23T15:58:22.545Z,4.63
2023-04-23T16:00:51.158Z,4.00
2023-04-23T16:03:20.821Z,3.60
2023-04-23T16:05:51.059Z,4.67
2023-04-23T16:08:20.565Z,3.80
2023-04-23T16:10:49.016Z,5.10
2023-04-23T16:13:20.333Z,5.93
2023-04-23T16:15:48.872Z,5.30
2023-04-23T16:18:17.249Z,4.27
2023-04-23T16:20:46.117Z,4.77
2023-04-23T16:23:14.552Z,5.60
2023-04-23T16:25:43.007Z,4.53
2023-04-23T16:28:13.302Z,4.40
2023-04-23T16:30:43.159Z,4.00
2023-04-23T16:33:11.632Z,4.33
2023-04-23T16:35:40.218Z,4.80
2023-04-23T16:38:10.964Z,4.73
2023-04-23T16:40:39.859Z,4.63
2023-04-23T16:43:08.275Z,4.23
2023-04-23T16:45:37.414Z,4.17
2023-04-23T16:48:08.376Z,3.73
2023-04-23T16:50:36.980Z,4.07
2023-04-23T16:53:05.869Z,4.40
2023-04-23T16:55:34.280Z,5.60
2023-04-23T16:58:02.812Z,4.80
2023-04-23T17:00:31.267Z,4.07
2023-04-23T17:02:59.783Z,4.37
2023-04-23T17:05:33.901Z,4.40
2023-04-23T17:08:02.654Z,4.57
2023-04-23T17:10:31.089Z,4.77
2023-04-23T17:12:59.487Z,4.40
2023-04-23T17:15:27.975Z,4.23
2023-04-23T17:17:56.740Z,5.00
2023-04-23T17:20:25.259Z,5.13
2023-04-23T17:23:04.572Z,5.13
2023-04-23T17:25:32.987Z,4.30
2023-04-23T17:28:01.725Z,4.57
2023-04-23T17:30:30.388Z,4.43
2023-04-23T17:32:58.943Z,4.00
2023-04-23T17:35:27.456Z,3.03
2023-04-23T17:37:56.624Z,2.40
2023-04-23T17:40:26.501Z,2.10
2023-04-23T17:42:55.093Z,1.10
2023-04-23T17:45:24.575Z,1.50
2023-04-23T17:47:53.018Z,1.80
2023-04-23T17:50:22.691Z,1.37
2023-04-23T17:52:52.437Z,1.70
2023-04-23T17:55:23.289Z,1.70
2023-04-23T17:57:53.106Z,1.70
2023-04-23T18:00:23.361Z,2.13
2023-04-23T18:02:52.094Z,1.57
2023-04-23T18:05:25.750Z,1.67
2023-04-23T18:07:54.188Z,1.50
2023-04-23T18:10:24.709Z,2.00
2023-04-23T18:12:54.748Z,2.20
2023-04-23T18:15:25.778Z,1.73
2023-04-23T18:17:55.849Z,1.43
2023-04-23T18:20:26.469Z,1.47
2023-04-23T18:22:55.280Z,1.40
2023-04-23T18:25:25.149Z,1.33
2023-04-23T18:27:55.027Z,1.10
2023-04-23T18:30:25.760Z,1.20
2023-04-23T18:33:03.376Z,1.47
2023-04-23T18:35:31.848Z,1.27
2023-04-23T18:38:03.657Z,1.53
2023-04-23T18:40:32.089Z,1.20
2023-04-23T18:43:01.867Z,1.40
2023-04-23T18:45:30.423Z,2.30
2023-04-23T18:48:21.003Z,2.10
2023-04-23T18:50:51.054Z,2.23
2023-04-23T18:53:22.465Z,2.50
2023-04-23T18:55:50.879Z,1.70
2023-04-23T18:58:22.231Z,1.63
2023-04-23T19:00:50.661Z,1.30
2023-04-23T19:03:26.038Z,1.53
2023-04-23T19:05:56.165Z,1.30
2023-04-23T19:08:28.607Z,1.60
2023-04-23T19:10:57.561Z,1.90
2023-04-23T19:13:27.511Z,1.70
2023-04-23T19:15:56.124Z,1.70
2023-04-23T19:18:34.627Z,2.10
2023-04-23T19:21:04.487Z,2.17
2023-04-23T19:23:32.929Z,2.50
2023-04-23T19:26:01.761Z,2.30
2023-04-23T19:28:31.707Z,1.97
2023-04-23T19:31:00.136Z,2.20
2023-04-23T19:33:28.594Z,2.60
2023-04-23T19:35:57.088Z,4.20
2023-04-23T19:38:25.589Z,3.10
2023-04-23T19:40:54.100Z,2.97
2023-04-23T19:43:23.613Z,2.20
2023-04-23T19:45:53.485Z,2.03
2023-04-23T19:48:24.595Z,1.83
2023-04-23T19:50:53.050Z,1.60
2023-04-23T19:53:21.608Z,1.60
2023-04-23T19:55:49.949Z,1.60
2023-04-23T19:58:18.781Z,1.60
2023-04-23T20:00:47.347Z,1.70
2023-04-23T20:03:17.311Z,1.67
2023-04-23T20:05:46.248Z,1.50
2023-04-23T20:08:26.303Z,1.70
2023-04-23T20:10:54.759Z,1.67
2023-04-23T20:13:23.730Z,1.63
2023-04-23T20:15:53.767Z,1.90
2023-04-23T20:18:25.491Z,1.80
2023-04-23T20:20:53.926Z,2.03
2023-04-23T20:23:23.247Z,2.50
2023-04-23T20:25:51.671Z,2.43
2023-04-23T20:28:19.991Z,2.43
2023-04-23T20:30:48.618Z,2.23
2023-04-23T20:33:18.693Z,2.23
2023-04-23T20:35:48.435Z,2.20
2023-04-23T20:38:19.273Z,2.00
2023-04-23T20:40:47.841Z,1.90
2023-04-23T20:43:16.447Z,2.17
2023-04-23T20:45:46.610Z,1.83
2023-04-23T20:48:15.506Z,1.50
2023-04-23T20:50:44.115Z,1.70
2023-04-23T20:53:14.316Z,1.67
2023-04-23T20:55:42.865Z,1.80
2023-04-23T20:58:11.368Z,2.00
2023-04-23T21:00:39.849Z,1.60
2023-04-23T21:03:09.399Z,1.63
2023-04-23T21:05:40.666Z,1.67
2023-04-23T21:08:09.949Z,1.57
2023-04-23T21:10:40.594Z,1.50
2023-04-23T21:13:10.993Z,1.50
2023-04-23T21:15:39.798Z,1.30
2023-04-23T21:18:09.753Z,1.50
2023-04-23T21:20:38.291Z,1.70
2023-04-23T21:23:07.097Z,1.30
2023-04-23T21:25:35.730Z,1.50
2023-04-23T21:28:05.776Z,1.20
2023-04-23T21:30:44.506Z,1.43
2023-04-23T21:33:12.927Z,1.30
2023-04-23T21:35:41.506Z,1.23
2023-04-23T21:38:10.269Z,1.50
2023-04-23T21:40:39.506Z,1.37
2023-04-23T21:43:09.272Z,1.13
2023-04-23T21:45:38.035Z,0.80
2023-04-23T21:48:06.879Z,1.10
2023-04-23T21:50:36.116Z,1.33
2023-04-23T21:53:04.557Z,1.10
2023-04-23T21:55:33.016Z,1.10
2023-04-23T22:00:34.322Z,1.20
2023-04-23T22:03:04.428Z,1.10
2023-04-23T22:05:37.460Z,1.03
2023-04-23T22:08:07.564Z,0.90
2023-04-23T22:10:38.181Z,1.00
2023-04-23T22:13:07.834Z,1.03
2023-04-23T22:15:38.399Z,1.00
2023-04-23T22:18:06.920Z,1.00
2023-04-23T22:20:37.525Z,0.70
2023-04-23T22:23:05.970Z,1.00
2023-04-23T22:25:34.373Z,1.00
2023-04-23T22:28:03.522Z,1.10
2023-04-23T22:30:31.861Z,1.23
2023-04-23T22:33:01.667Z,1.20
2023-04-23T22:35:30.339Z,1.00
2023-04-23T22:37:58.952Z,1.07
2023-04-23T22:40:27.319Z,1.10
2023-04-23T22:42:55.654Z,1.30
2023-04-23T22:45:25.477Z,1.20
2023-04-23T22:47:55.349Z,1.23
2023-04-23T22:50:25.121Z,1.10
2023-04-23T22:52:53.506Z,1.17
2023-04-23T22:55:21.866Z,1.00
2023-04-23T22:57:50.484Z,0.97
2023-04-23T23:00:18.874Z,1.20
2023-04-23T23:02:49.075Z,1.00
2023-04-23T23:05:17.812Z,0.70
2023-04-23T23:07:51.871Z,1.30
2023-04-23T23:10:22.773Z,0.90
2023-04-23T23:12:51.998Z,0.97
2023-04-23T23:15:20.479Z,1.10
2023-04-23T23:17:48.913Z,1.00
2023-04-23T23:20:17.858Z,1.00
2023-04-23T23:22:46.305Z,0.70
2023-04-23T23:25:16.109Z,0.90
2023-04-23T23:27:44.569Z,0.70
2023-04-23T23:30:13.273Z,0.43
2023-04-23T23:32:41.645Z,0.60
2023-04-23T23:35:10.725Z,0.70
2023-04-23T23:37:39.112Z,0.80
2023-04-23T23:40:09.893Z,0.60
2023-04-23T23:42:49.603Z,0.40
2023-04-23T23:45:18.130Z,0.50
2023-04-23T23:47:46.878Z,0.50
2023-04-23T23:50:15.431Z,0.70
2023-04-23T23:52:44.120Z,0.50
2023-04-23T23:55:12.563Z,0.63
2023-04-23T23:57:45.031Z,0.40
